Time;durP1;ratioP1;P1;durP2;ratioP2;P2;SDS_P1;SDS_P2;PMS_P1;PMS_P2;Temp;Humidity;BMP_temperature;BMP_pressure;BME280_temperature;BME280_humidity;BME280_pressure;Samples;Min_cycle;Max_cycle;Signal;HPM_P1;HPM_P2
2023/10/19 00:02:05;;;;;;;;;;;;;;;25.63;19.45;97518.09;5083959;28;19927;-92
2023/10/19 00:04:34;;;;;;;;;;;;;;;25.45;19.46;97509.53;5074485;28;19927;-92
2023/10/19 00:07:00;;;;;;;;;;;;;;;25.18;19.41;97512.88;5076366;28;20269;-93
2023/10/19 00:09:31;;;;;;;;;;;;;;;24.76;19.77;97507.94;5076920;28;19920;-92
2023/10/19 00:11:57;;;;;;;;;;;;;;;24.94;19.96;97503.31;5086313;28;19920;-92
2023/10/19 00:14:25;;;;;;;;;;;;;;;25.02;19.80;97499.00;5076225;28;20036;-91
2023/10/19 00:17:00;;;;;;;;;;;;;;;24.95;20.14;97495.69;5084944;28;19920;-92
2023/10/19 00:19:28;;;;;;;;;;;;;;;25.00;20.08;97503.50;5071571;28;20015;-92
2023/10/19 00:22:07;;;;;;;;;;;;;;;24.91;20.27;97498.59;5078220;28;19921;-92
2023/10/19 00:24:34;;;;;;;;;;;;;;;25.12;20.28;97509.09;5074031;28;20280;-92
2023/10/19 00:27:05;;;;;;;;;;;;;;;25.26;19.49;97490.94;5073259;28;19921;-93
2023/10/19 00:29:33;;;;;;;;;;;;;;;25.19;19.72;97503.22;5072053;28;19924;-92
2023/10/19 00:32:00;;;;;;;;;;;;;;;25.21;20.01;97489.50;5073436;28;19928;-92
2023/10/19 00:34:28;;;;;;;;;;;;;;;25.30;19.95;97492.38;5079640;28;19916;-93
2023/10/19 00:36:56;;;;;;;;;;;;;;;25.30;19.57;97485.97;5088045;28;19920;-94
2023/10/19 00:39:23;;;;;;;;;;;;;;;25.23;20.11;97480.59;5084152;28;20008;-93
2023/10/19 00:41:50;;;;;;;;;;;;;;;25.20;19.75;97475.91;5084226;28;19928;-93
2023/10/19 00:44:35;;;;;;;;;;;;;;;25.25;19.89;97470.47;5093299;28;19932;-93
2023/10/19 00:47:11;;;;;;;;;;;;;;;25.52;19.59;97469.13;5081261;28;19917;-93
2023/10/19 00:49:38;;;;;;;;;;;;;;;25.68;19.61;97464.09;5089364;28;19927;-93
2023/10/19 00:52:12;;;;;;;;;;;;;;;25.28;19.59;97463.94;5082670;28;19928;-93
2023/10/19 00:54:51;;;;;;;;;;;;;;;24.42;19.89;97466.53;5092681;28;19916;-93
2023/10/19 00:57:32;;;;;;;;;;;;;;;24.74;19.95;97455.03;5084514;28;19920;-93
2023/10/19 01:00:21;;;;;;;;;;;;;;;25.17;19.77;97449.50;5090573;28;19921;-93
2023/10/19 01:02:51;;;;;;;;;;;;;;;25.29;18.92;97451.47;5084256;28;20059;-93
2023/10/19 01:05:21;;;;;;;;;;;;;;;25.26;18.74;97446.78;5080122;28;20487;-92
2023/10/19 01:07:53;;;;;;;;;;;;;;;25.32;18.57;97453.34;5081716;28;19920;-93
2023/10/19 01:10:23;;;;;;;;;;;;;;;25.16;18.45;97444.34;5090448;28;19974;-93
2023/10/19 01:12:52;;;;;;;;;;;;;;;24.99;18.49;97442.97;5093448;28;19920;-93
2023/10/19 01:15:29;;;;;;;;;;;;;;;24.80;18.70;97422.38;5097974;28;19947;-94
2023/10/19 01:17:56;;;;;;;;;;;;;;;24.37;18.92;97416.59;5091222;28;19921;-94
2023/10/19 01:28:28;;;;;;;;;;;;;;;24.41;18.87;97409.63;5097913;28;19928;-93
2023/10/19 01:30:54;;;;;;;;;;;;;;;24.13;18.90;97404.22;5088794;28;20330;-93
2023/10/19 01:33:21;;;;;;;;;;;;;;;24.20;19.00;97404.72;5098723;28;19918;-93
2023/10/19 01:38:33;;;;;;;;;;;;;;;24.45;19.12;97401.13;5090536;28;19944;-93
2023/10/19 01:40:59;;;;;;;;;;;;;;;24.44;18.81;97391.09;5095664;28;19927;-93
2023/10/19 01:43:30;;;;;;;;;;;;;;;24.54;18.59;97387.16;5088079;28;20372;-92
2023/10/19 01:46:11;;;;;;;;;;;;;;;24.31;18.94;97382.75;5082880;28;19924;-92
2023/10/19 01:48:41;;;;;;;;;;;;;;;24.31;19.36;97381.94;5076806;28;19927;-92
2023/10/19 01:51:13;;;;;;;;;;;;;;;24.59;18.83;97378.97;5077680;28;19963;-92
2023/10/19 01:53:43;;;;;;;;;;;;;;;24.62;18.83;97374.47;5079753;28;20371;-91
2023/10/19 01:56:09;;;;;;;;;;;;;;;24.57;18.69;97377.84;5079315;28;19974;-92
2023/10/19 01:58:36;;;;;;;;;;;;;;;24.61;18.52;97373.66;5078930;28;20394;-93
2023/10/19 02:01:08;;;;;;;;;;;;;;;23.85;19.12;97367.38;5086245;28;19921;-92
2023/10/19 02:03:35;;;;;;;;;;;;;;;23.76;19.60;97364.47;5089614;28;19931;-92
2023/10/19 02:06:17;;;;;;;;;;;;;;;23.91;19.23;97360.00;5082575;28;20334;-92
2023/10/19 02:08:45;;;;;;;;;;;;;;;24.08;18.73;97357.88;5077443;28;19925;-92
2023/10/19 02:11:17;;;;;;;;;;;;;;;24.04;19.00;97354.34;5085527;28;19927;-92
2023/10/19 02:13:46;;;;;;;;;;;;;;;23.99;19.21;97349.34;5079682;28;19971;-92
2023/10/19 02:16:14;;;;;;;;;;;;;;;23.85;19.49;97339.34;5092522;28;20011;-92
2023/10/19 02:18:41;;;;;;;;;;;;;;;24.23;18.87;97339.31;5083214;28;19920;-92
2023/10/19 02:21:08;;;;;;;;;;;;;;;24.49;18.96;97340.03;5086260;28;19917;-92
2023/10/19 02:23:34;;;;;;;;;;;;;;;23.95;19.15;97331.84;5082755;28;19927;-92
2023/10/19 02:26:00;;;;;;;;;;;;;;;24.09;19.04;97325.78;5080262;28;19982;-92
2023/10/19 02:28:31;;;;;;;;;;;;;;;24.46;18.64;97324.09;5095657;28;19920;-92
2023/10/19 02:30:59;;;;;;;;;;;;;;;24.62;18.63;97327.50;5101380;28;19916;-92
2023/10/19 02:33:26;;;;;;;;;;;;;;;23.94;18.88;97314.22;5088697;28;19923;-92
2023/10/19 02:35:52;;;;;;;;;;;;;;;23.80;19.27;97317.53;5088217;28;19983;-92
2023/10/19 02:38:18;;;;;;;;;;;;;;;23.68;19.52;97312.72;5085904;28;19912;-93
2023/10/19 02:40:46;;;;;;;;;;;;;;;24.01;19.44;97313.97;5087039;28;19928;-93
2023/10/19 02:43:12;;;;;;;;;;;;;;;23.77;19.19;97304.41;5095342;28;20383;-93
2023/10/19 02:45:38;;;;;;;;;;;;;;;23.66;19.36;97294.78;5096183;28;19921;-92
2023/10/19 02:48:04;;;;;;;;;;;;;;;24.05;19.13;97295.03;5094109;28;19931;-92
2023/10/19 02:50:31;;;;;;;;;;;;;;;24.29;19.21;97291.84;5094486;28;20386;-92
2023/10/19 02:52:57;;;;;;;;;;;;;;;24.56;18.85;97292.84;5087520;28;19920;-92
2023/10/19 02:55:24;;;;;;;;;;;;;;;24.57;19.15;97283.22;5088504;28;20066;-93
2023/10/19 02:57:50;;;;;;;;;;;;;;;24.42;19.52;97290.56;5088787;28;19920;-92
2023/10/19 03:00:20;;;;;;;;;;;;;;;24.22;19.99;97295.69;5091293;28;19931;-92
2023/10/19 03:02:47;;;;;;;;;;;;;;;24.55;19.82;97293.31;5091494;28;19973;-93
2023/10/19 03:05:17;;;;;;;;;;;;;;;24.87;18.90;97283.72;5086740;28;19923;-92
2023/10/19 03:07:44;;;;;;;;;;;;;;;24.73;18.50;97279.41;5081381;28;19967;-92
2023/10/19 03:10:23;;;;;;;;;;;;;;;24.55;18.63;97271.63;5091810;28;19939;-93
2023/10/19 03:12:50;;;;;;;;;;;;;;;24.53;18.75;97262.09;5088399;28;20269;-92
2023/10/19 03:15:20;;;;;;;;;;;;;;;24.81;18.61;97261.06;5085739;28;19973;-92
2023/10/19 03:17:46;;;;;;;;;;;;;;;25.03;18.36;97266.66;5091391;28;19920;-92
2023/10/19 03:20:16;;;;;;;;;;;;;;;25.17;18.15;97263.31;5084424;28;19923;-92
2023/10/19 03:22:43;;;;;;;;;;;;;;;25.20;18.37;97253.97;5088541;28;19916;-93
2023/10/19 03:27:54;;;;;;;;;;;;;;;24.80;19.13;97241.88;5083578;28;20436;-92
2023/10/19 03:30:24;;;;;;;;;;;;;;;25.14;19.01;97231.28;5076531;28;19927;-90
2023/10/19 03:32:51;;;;;;;;;;;;;;;24.98;18.49;97239.97;5081174;28;19964;-91
2023/10/19 03:35:17;;;;;;;;;;;;;;;24.38;19.54;97230.97;5077095;28;20445;-91
2023/10/19 03:37:47;;;;;;;;;;;;;;;24.72;19.02;97225.28;5082703;28;19924;-92
2023/10/19 03:40:25;;;;;;;;;;;;;;;25.02;18.67;97223.75;5081368;28;20307;-92
2023/10/19 03:42:54;;;;;;;;;;;;;;;25.08;18.62;97213.50;5091082;28;19926;-91
2023/10/19 03:45:23;;;;;;;;;;;;;;;25.17;18.63;97210.72;5084132;28;19928;-92
2023/10/19 03:47:55;;;;;;;;;;;;;;;24.34;19.42;97210.66;5089961;28;20357;-92
2023/10/19 03:50:21;;;;;;;;;;;;;;;24.63;19.30;97204.78;5086539;28;19921;-92
2023/10/19 03:52:47;;;;;;;;;;;;;;;24.18;19.70;97201.69;5084501;28;20388;-92
2023/10/19 03:55:19;;;;;;;;;;;;;;;23.62;20.31;97191.19;5086235;28;19931;-92
2023/10/19 03:57:52;;;;;;;;;;;;;;;24.12;20.22;97183.88;5082749;28;20336;-92
2023/10/19 04:00:24;;;;;;;;;;;;;;;24.67;19.45;97178.16;5088067;28;20469;-92
2023/10/19 04:02:53;;;;;;;;;;;;;;;24.29;19.98;97182.44;5086173;28;21726;-92
2023/10/19 04:05:28;;;;;;;;;;;;;;;24.49;20.28;97172.44;5074380;28;19956;-93
2023/10/19 04:08:01;;;;;;;;;;;;;;;24.24;20.63;97185.81;5089191;28;19928;-92
2023/10/19 04:10:30;;;;;;;;;;;;;;;24.58;20.40;97177.31;5089710;28;19928;-93
2023/10/19 04:12:59;;;;;;;;;;;;;;;24.66;20.34;97162.56;5077251;28;19928;-93
2023/10/19 04:15:26;;;;;;;;;;;;;;;25.07;19.88;97161.34;5088282;28;20475;-93
2023/10/19 04:17:58;;;;;;;;;;;;;;;25.04;19.91;97161.50;5086956;28;19927;-93
2023/10/19 04:22:50;;;;;;;;;;;;;;;24.59;20.75;97160.03;5076777;28;20394;-92
2023/10/19 04:25:18;;;;;;;;;;;;;;;24.52;20.70;97163.09;5081168;28;19922;-94
2023/10/19 04:27:45;;;;;;;;;;;;;;;24.24;21.09;97157.78;5084830;28;20032;-92
2023/10/19 04:30:15;;;;;;;;;;;;;;;23.88;21.55;97155.44;5085172;28;19921;-94
2023/10/19 04:32:42;;;;;;;;;;;;;;;23.17;22.49;97145.88;5084712;28;19942;-93
2023/10/19 04:35:13;;;;;;;;;;;;;;;23.45;22.45;97141.38;5088543;28;19944;-94
2023/10/19 04:37:42;;;;;;;;;;;;;;;23.63;22.48;97133.13;5085118;28;20388;-94
2023/10/19 04:40:09;;;;;;;;;;;;;;;23.53;22.69;97128.66;5081804;28;19924;-94
2023/10/19 04:42:36;;;;;;;;;;;;;;;23.73;22.36;97123.56;5082482;28;19924;-94
2023/10/19 04:45:03;;;;;;;;;;;;;;;23.58;22.57;97120.47;5092396;28;19924;-95
2023/10/19 04:47:29;;;;;;;;;;;;;;;23.97;22.38;97128.25;5088759;28;19920;-93
2023/10/19 04:49:55;;;;;;;;;;;;;;;24.43;21.76;97114.56;5073741;28;19921;-93
2023/10/19 04:52:21;;;;;;;;;;;;;;;24.74;21.40;97120.94;5080392;28;19920;-93
2023/10/19 04:54:47;;;;;;;;;;;;;;;24.75;21.89;97114.09;5079603;28;19935;-95
2023/10/19 04:57:13;;;;;;;;;;;;;;;25.28;21.22;97112.72;5084101;28;19928;-93
2023/10/19 04:59:41;;;;;;;;;;;;;;;25.83;20.52;97110.78;5083851;28;19923;-93
2023/10/19 05:02:09;;;;;;;;;;;;;;;25.88;20.61;97115.00;5080461;28;19920;-93
2023/10/19 05:04:35;;;;;;;;;;;;;;;26.10;20.08;97110.00;5094310;28;19916;-93
2023/10/19 05:07:03;;;;;;;;;;;;;;;26.39;20.04;97115.88;5099554;28;20304;-93
2023/10/19 05:09:30;;;;;;;;;;;;;;;26.57;19.55;97101.75;5096954;28;19919;-93
2023/10/19 05:11:56;;;;;;;;;;;;;;;26.61;19.67;97096.72;5097153;28;19966;-93
2023/10/19 05:14:23;;;;;;;;;;;;;;;26.73;19.58;97107.00;5096679;28;19927;-94
2023/10/19 05:16:49;;;;;;;;;;;;;;;26.86;19.41;97106.06;5095623;28;19964;-93
2023/10/19 05:19:15;;;;;;;;;;;;;;;26.95;18.78;97100.38;5089861;28;19928;-93
2023/10/19 05:21:41;;;;;;;;;;;;;;;26.94;18.94;97104.44;5076936;28;19917;-94
2023/10/19 05:24:08;;;;;;;;;;;;;;;26.88;18.49;97100.72;5076400;28;19916;-93
2023/10/19 05:26:34;;;;;;;;;;;;;;;26.76;18.83;97108.13;5076281;28;20388;-94
2023/10/19 05:29:00;;;;;;;;;;;;;;;26.75;18.80;97103.72;5094960;28;19916;-93
2023/10/19 05:31:28;;;;;;;;;;;;;;;26.79;18.90;97109.22;5094734;28;20433;-92
2023/10/19 05:33:54;;;;;;;;;;;;;;;26.53;19.13;97115.22;5077185;28;19924;-93
2023/10/19 05:36:20;;;;;;;;;;;;;;;26.58;18.85;97108.16;5080713;28;19916;-93
2023/10/19 05:38:46;;;;;;;;;;;;;;;26.34;19.03;97119.34;5085620;28;19920;-93
2023/10/19 05:41:12;;;;;;;;;;;;;;;26.20;19.35;97113.56;5075942;28;19978;-94
2023/10/19 05:43:38;;;;;;;;;;;;;;;26.34;18.98;97110.09;5086733;28;19967;-93
2023/10/19 05:46:04;;;;;;;;;;;;;;;26.32;18.75;97109.78;5079771;28;19991;-91
2023/10/19 05:48:31;;;;;;;;;;;;;;;25.77;19.46;97106.22;5074924;28;19928;-94
2023/10/19 05:50:57;;;;;;;;;;;;;;;25.97;19.41;97096.09;5074924;28;19959;-94
2023/10/19 05:53:23;;;;;;;;;;;;;;;25.86;19.35;97090.13;5075932;28;19921;-94
2023/10/19 05:55:49;;;;;;;;;;;;;;;25.79;19.66;97098.13;5083445;28;19942;-95
2023/10/19 05:58:15;;;;;;;;;;;;;;;25.99;19.72;97081.53;5089268;28;19931;-92
2023/10/19 06:00:42;;;;;;;;;;;;;;;25.20;20.26;97088.19;5078238;28;19924;-91
2023/10/19 06:03:08;;;;;;;;;;;;;;;25.19;20.48;97089.44;5076962;28;19935;-95
2023/10/19 06:05:34;;;;;;;;;;;;;;;25.59;20.05;97084.53;5083144;28;19920;-94
2023/10/19 06:08:00;;;;;;;;;;;;;;;25.85;19.72;97077.34;5079968;28;19939;-94
2023/10/19 06:10:27;;;;;;;;;;;;;;;25.29;20.21;97080.56;5079571;28;19917;-94
2023/10/19 06:12:53;;;;;;;;;;;;;;;25.24;20.55;97071.97;5079442;28;20023;-94
2023/10/19 06:15:23;;;;;;;;;;;;;;;25.22;20.79;97082.91;5090605;28;19924;-94
2023/10/19 06:17:49;;;;;;;;;;;;;;;25.51;20.54;97074.81;5101829;28;19926;-93
2023/10/19 06:20:25;;;;;;;;;;;;;;;25.61;20.63;97075.63;5102320;28;19916;-94
2023/10/19 06:22:56;;;;;;;;;;;;;;;25.93;20.29;97067.31;5101030;28;19916;-94
2023/10/19 06:25:23;;;;;;;;;;;;;;;26.15;20.46;97055.13;5085960;28;19963;-94
2023/10/19 06:27:50;;;;;;;;;;;;;;;25.73;20.89;97052.19;5078253;28;20402;-94
2023/10/19 06:30:18;;;;;;;;;;;;;;;26.04;20.58;97056.34;5095639;28;19971;-94
2023/10/19 06:32:45;;;;;;;;;;;;;;;26.58;20.38;97051.84;5090562;28;19916;-94
2023/10/19 06:35:11;;;;;;;;;;;;;;;26.19;20.45;97044.47;5090332;28;19938;-94
2023/10/19 06:37:38;;;;;;;;;;;;;;;26.20;20.81;97043.22;5073668;28;19970;-94
2023/10/19 06:40:06;;;;;;;;;;;;;;;26.71;20.52;97044.75;5074325;28;19962;-93
2023/10/19 06:42:32;;;;;;;;;;;;;;;26.40;21.17;97037.81;5074636;28;19965;-94
2023/10/19 06:44:58;;;;;;;;;;;;;;;26.78;20.77;97035.19;5074619;28;19920;-94
2023/10/19 06:47:24;;;;;;;;;;;;;;;27.11;20.89;97032.34;5074466;28;20387;-94
2023/10/19 06:49:50;;;;;;;;;;;;;;;26.93;21.74;97024.78;5074690;28;19916;-94
2023/10/19 06:52:16;;;;;;;;;;;;;;;26.84;22.01;97029.69;5075005;28;20394;-94
2023/10/19 06:54:42;;;;;;;;;;;;;;;27.24;21.29;97015.94;5092247;28;19916;-94
2023/10/19 06:57:08;;;;;;;;;;;;;;;27.52;20.62;97019.34;5082851;28;19966;-94
2023/10/19 06:59:36;;;;;;;;;;;;;;;27.62;21.08;97009.56;5074663;28;20010;-94
2023/10/19 07:02:02;;;;;;;;;;;;;;;27.59;21.19;97002.84;5079684;28;20380;-94
2023/10/19 07:04:29;;;;;;;;;;;;;;;27.18;21.93;97015.06;5095033;28;19916;-95
2023/10/19 07:06:55;;;;;;;;;;;;;;;27.48;21.80;97005.47;5095026;28;20368;-94
2023/10/19 07:09:23;;;;;;;;;;;;;;;28.00;20.74;97001.09;5094567;28;20391;-94
2023/10/19 07:11:53;;;;;;;;;;;;;;;28.16;21.07;97011.09;5092789;28;19923;-94
2023/10/19 07:14:20;;;;;;;;;;;;;;;28.07;21.67;97003.50;5094590;28;19924;-93
2023/10/19 07:16:49;;;;;;;;;;;;;;;28.38;20.73;96988.88;5078141;28;19927;-94
2023/10/19 07:19:15;;;;;;;;;;;;;;;28.31;21.27;96986.47;5081312;28;19963;-94
2023/10/19 07:21:43;;;;;;;;;;;;;;;28.29;21.39;96981.28;5094457;28;20370;-93
2023/10/19 07:24:11;;;;;;;;;;;;;;;28.19;21.65;96981.91;5081449;28;20333;-93
2023/10/19 07:26:51;;;;;;;;;;;;;;;28.24;21.70;96979.16;5073807;28;19923;-93
2023/10/19 07:29:18;;;;;;;;;;;;;;;28.43;22.19;96974.06;5072824;28;19923;-93
2023/10/19 07:31:44;;;;;;;;;;;;;;;28.57;21.81;96967.59;5090545;28;19927;-93
2023/10/19 07:34:15;;;;;;;;;;;;;;;28.52;21.41;96971.13;5075376;28;19917;-93
2023/10/19 07:36:42;;;;;;;;;;;;;;;28.49;22.04;96967.25;5084331;28;20395;-92
2023/10/19 07:39:13;;;;;;;;;;;;;;;27.67;22.71;96969.41;5092734;28;19916;-92
2023/10/19 07:41:40;;;;;;;;;;;;;;;27.71;22.28;96959.50;5075722;28;20261;-93
2023/10/19 07:44:06;;;;;;;;;;;;;;;28.02;23.31;96948.53;5075372;28;19931;-93
2023/10/19 07:46:32;;;;;;;;;;;;;;;27.79;22.74;96937.31;5076014;28;19964;-92
2023/10/19 07:49:00;;;;;;;;;;;;;;;27.38;23.23;96939.91;5077384;28;19923;-92
2023/10/19 07:51:26;;;;;;;;;;;;;;;26.00;22.94;96948.84;5075270;28;19921;-92
2023/10/19 07:53:53;;;;;;;;;;;;;;;25.94;23.74;96944.34;5088080;28;19939;-92
2023/10/19 07:56:19;;;;;;;;;;;;;;;26.16;24.38;96947.75;5077942;28;19917;-93
2023/10/19 07:58:45;;;;;;;;;;;;;;;26.33;23.85;96942.47;5074978;28;20011;-92
2023/10/19 08:01:12;;;;;;;;;;;;;;;26.22;24.86;96953.47;5077260;28;20399;-93
2023/10/19 08:03:38;;;;;;;;;;;;;;;26.86;24.13;96949.09;5093024;28;20399;-93
2023/10/19 08:06:04;;;;;;;;;;;;;;;27.19;22.40;96940.56;5093692;28;20281;-93
2023/10/19 08:08:34;;;;;;;;;;;;;;;27.21;22.73;96921.13;5076239;28;20403;-93
2023/10/19 08:11:00;;;;;;;;;;;;;;;25.52;24.47;96929.47;5085437;28;19920;-93
2023/10/19 08:13:27;;;;;;;;;;;;;;;26.27;24.87;96924.69;5112934;28;20382;-92
2023/10/19 08:15:53;;;;;;;;;;;;;;;25.93;24.45;96923.09;5109371;28;20038;-93
2023/10/19 08:18:20;;;;;;;;;;;;;;;26.16;24.23;96925.22;5098307;28;19917;-92
2023/10/19 08:20:46;;;;;;;;;;;;;;;26.89;24.14;96916.34;5098087;28;20061;-91
2023/10/19 08:23:13;;;;;;;;;;;;;;;26.65;24.66;96914.28;5095815;28;19955;-92
2023/10/19 08:25:39;;;;;;;;;;;;;;;27.53;23.36;96908.16;5085335;28;19924;-93
2023/10/19 08:28:06;;;;;;;;;;;;;;;28.24;23.06;96907.81;5077701;28;19995;-92
2023/10/19 08:30:34;;;;;;;;;;;;;;;26.44;24.84;96894.91;5077780;28;19917;-93
2023/10/19 08:33:01;;;;;;;;;;;;;;;26.49;24.54;96897.81;5078240;28;19916;-91
2023/10/19 08:35:27;;;;;;;;;;;;;;;26.53;25.16;96898.44;5082194;28;19926;-92
2023/10/19 08:37:54;;;;;;;;;;;;;;;26.54;25.69;96900.00;5098778;28;19983;-92
2023/10/19 08:40:23;;;;;;;;;;;;;;;25.85;25.49;96890.94;5093808;28;20019;-91
2023/10/19 08:42:49;;;;;;;;;;;;;;;26.18;24.88;96888.97;5077374;28;19916;-91
2023/10/19 08:45:16;;;;;;;;;;;;;;;26.98;23.85;96890.94;5077774;28;19928;-92
2023/10/19 08:47:48;;;;;;;;;;;;;;;26.76;24.65;96885.63;5077582;28;19916;-91
2023/10/19 08:50:14;;;;;;;;;;;;;;;27.87;23.65;96877.19;5077649;28;19963;-92
2023/10/19 08:52:42;;;;;;;;;;;;;;;28.67;23.42;96876.63;5077590;28;20277;-93
2023/10/19 08:55:12;;;;;;;;;;;;;;;28.00;23.31;96874.09;5076747;28;19923;-91
2023/10/19 08:57:39;;;;;;;;;;;;;;;27.66;22.96;96875.56;5083205;28;19927;-92
2023/10/19 09:00:06;;;;;;;;;;;;;;;27.84;23.80;96866.88;5093884;28;19978;-92
2023/10/19 09:02:33;;;;;;;;;;;;;;;27.85;23.25;96867.66;5077687;28;20449;-92
2023/10/19 09:05:06;;;;;;;;;;;;;;;28.50;22.81;96857.88;5076752;28;19944;-93
2023/10/19 09:07:34;;;;;;;;;;;;;;;28.31;22.60;96854.53;5076960;28;20003;-93
2023/10/19 09:10:01;;;;;;;;;;;;;;;27.23;22.87;96850.94;5076617;28;20380;-91
2023/10/19 09:12:27;;;;;;;;;;;;;;;27.36;23.70;96854.25;5076988;28;19916;-92
2023/10/19 09:14:53;;;;;;;;;;;;;;;28.37;22.25;96851.78;5082616;28;19920;-92
2023/10/19 09:17:29;;;;;;;;;;;;;;;28.91;21.61;96847.38;5076887;28;19923;-92
2023/10/19 09:19:56;;;;;;;;;;;;;;;29.03;20.98;96844.19;5076721;28;19916;-93
2023/10/19 09:22:25;;;;;;;;;;;;;;;29.02;21.13;96845.44;5076262;28;20322;-91
2023/10/19 09:24:53;;;;;;;;;;;;;;;28.75;21.84;96837.44;5076672;28;19948;-94
2023/10/19 09:27:20;;;;;;;;;;;;;;;28.89;21.79;96832.97;5077308;28;19969;-92
2023/10/19 09:29:46;;;;;;;;;;;;;;;28.80;21.56;96833.88;5077944;28;19921;-93
2023/10/19 09:32:15;;;;;;;;;;;;;;;28.99;21.16;96837.16;5076862;28;19920;-92
2023/10/19 09:34:43;;;;;;;;;;;;;;;28.86;22.49;96831.91;5076915;28;19928;-93
2023/10/19 09:37:11;;;;;;;;;;;;;;;29.16;21.96;96846.63;5096467;28;19923;-93
2023/10/19 09:39:37;;;;;;;;;;;;;;;27.95;23.00;96838.88;5095284;28;19920;-92
2023/10/19 09:42:16;;;;;;;;;;;;;;;28.55;21.70;96838.19;5095338;28;20385;-91
2023/10/19 09:44:43;;;;;;;;;;;;;;;28.10;23.61;96838.06;5077867;28;19932;-92
2023/10/19 09:47:12;;;;;;;;;;;;;;;28.68;22.48;96832.97;5096430;28;19978;-92
2023/10/19 09:49:38;;;;;;;;;;;;;;;29.15;22.05;96826.03;5080594;28;19943;-93
2023/10/19 09:52:05;;;;;;;;;;;;;;;29.80;21.62;96817.94;5080296;28;19951;-92
2023/10/19 09:54:31;;;;;;;;;;;;;;;29.82;20.96;96816.16;5094101;28;19923;-92
2023/10/19 09:57:01;;;;;;;;;;;;;;;30.21;20.94;96816.41;5095966;28;19961;-93
2023/10/19 09:59:37;;;;;;;;;;;;;;;30.20;20.66;96814.84;5088856;28;19974;-93
2023/10/19 10:02:13;;;;;;;;;;;;;;;30.42;20.91;96812.19;5090403;28;20031;-93
2023/10/19 10:04:45;;;;;;;;;;;;;;;30.48;20.75;96810.13;5075860;28;19974;-92
2023/10/19 10:07:11;;;;;;;;;;;;;;;30.02;21.91;96784.13;5076000;28;20351;-93
2023/10/19 10:09:45;;;;;;;;;;;;;;;29.45;22.94;96791.91;5085580;28;19945;-93
2023/10/19 10:12:18;;;;;;;;;;;;;;;29.60;21.41;96790.50;5094048;28;19916;-93
2023/10/19 10:14:52;;;;;;;;;;;;;;;29.57;22.19;96799.22;5099644;28;19924;-92
2023/10/19 10:17:18;;;;;;;;;;;;;;;29.42;22.05;96794.47;5113452;28;19925;-92
2023/10/19 10:19:45;;;;;;;;;;;;;;;29.12;22.07;96792.34;5075419;28;19920;-93
2023/10/19 10:22:14;;;;;;;;;;;;;;;29.29;23.27;96788.44;5075979;28;20402;-93
2023/10/19 10:24:40;;;;;;;;;;;;;;;29.29;23.50;96770.72;5075351;28;20373;-93
2023/10/19 10:27:07;;;;;;;;;;;;;;;29.29;23.26;96773.53;5089215;28;20028;-93
2023/10/19 10:29:33;;;;;;;;;;;;;;;29.56;23.29;96763.72;5097235;28;19919;-93
2023/10/19 10:31:59;;;;;;;;;;;;;;;29.71;22.92;96773.59;5085618;28;19940;-93
2023/10/19 10:34:38;;;;;;;;;;;;;;;29.84;22.78;96764.72;5081835;28;20376;-93
2023/10/19 10:37:05;;;;;;;;;;;;;;;29.52;22.74;96760.34;5076101;28;19928;-93
2023/10/19 10:39:31;;;;;;;;;;;;;;;29.72;23.27;96757.41;5075576;28;20360;-92
2023/10/19 10:41:58;;;;;;;;;;;;;;;29.78;22.87;96746.94;5074887;28;19924;-93
2023/10/19 10:44:39;;;;;;;;;;;;;;;29.89;22.45;96753.44;5080182;28;20437;-93
2023/10/19 10:47:07;;;;;;;;;;;;;;;30.09;22.43;96746.84;5074922;28;20015;-93
2023/10/19 10:49:33;;;;;;;;;;;;;;;30.07;22.30;96738.88;5074499;28;19921;-93
2023/10/19 10:51:59;;;;;;;;;;;;;;;29.23;22.87;96742.38;5074561;28;20431;-92
2023/10/19 10:54:25;;;;;;;;;;;;;;;28.55;23.17;96730.84;5073477;28;19916;-93
2023/10/19 10:56:51;;;;;;;;;;;;;;;27.26;24.57;96731.59;5074358;28;19921;-92
2023/10/19 10:59:17;;;;;;;;;;;;;;;27.86;24.86;96716.91;5084374;28;20402;-92
2023/10/19 11:01:44;;;;;;;;;;;;;;;28.04;24.05;96711.78;5093927;28;19920;-92
2023/10/19 11:04:11;;;;;;;;;;;;;;;27.88;24.59;96712.31;5079677;28;19923;-92
2023/10/19 11:06:49;;;;;;;;;;;;;;;28.58;24.68;96709.31;5080463;28;19923;-92
2023/10/19 11:09:18;;;;;;;;;;;;;;;29.07;23.31;96708.28;5094774;28;19976;-92
2023/10/19 11:11:45;;;;;;;;;;;;;;;28.84;23.36;96698.06;5094686;28;20387;-91
2023/10/19 11:14:11;;;;;;;;;;;;;;;28.47;24.02;96693.03;5093541;28;20007;-91
2023/10/19 11:16:39;;;;;;;;;;;;;;;28.90;23.88;96684.75;5092667;28;19920;-92
2023/10/19 11:19:05;;;;;;;;;;;;;;;29.09;24.25;96683.13;5074008;28;19923;-92
2023/10/19 11:21:31;;;;;;;;;;;;;;;29.31;23.83;96675.59;5074095;28;19962;-92
2023/10/19 11:23:59;;;;;;;;;;;;;;;29.04;24.05;96670.47;5073662;28;20219;-92
2023/10/19 11:26:25;;;;;;;;;;;;;;;29.55;23.79;96665.97;5089469;28;20372;-92
2023/10/19 11:29:04;;;;;;;;;;;;;;;29.28;24.75;96662.50;5077923;28;20011;-93
2023/10/19 11:31:37;;;;;;;;;;;;;;;29.49;24.17;96668.00;5081325;28;19927;-93
2023/10/19 11:34:03;;;;;;;;;;;;;;;29.86;24.10;96660.28;5074917;28;19963;-93
2023/10/19 11:36:29;;;;;;;;;;;;;;;30.06;24.25;96663.69;5076149;28;19921;-94
2023/10/19 11:38:56;;;;;;;;;;;;;;;30.35;24.35;96656.88;5081207;28;19920;-93
2023/10/19 11:41:23;;;;;;;;;;;;;;;30.23;24.99;96655.28;5074320;28;20016;-94
2023/10/19 11:43:49;;;;;;;;;;;;;;;30.39;24.73;96642.47;5072709;28;20023;-93
2023/10/19 11:46:17;;;;;;;;;;;;;;;29.60;24.52;96636.94;5081791;28;19924;-94
2023/10/19 11:48:44;;;;;;;;;;;;;;;30.17;24.94;96636.72;5077636;28;19921;-93
2023/10/19 11:51:14;;;;;;;;;;;;;;;30.11;23.98;96633.88;5079894;28;19919;-93
2023/10/19 11:53:42;;;;;;;;;;;;;;;30.03;24.53;96627.94;5079534;28;19920;-93
2023/10/19 11:56:09;;;;;;;;;;;;;;;29.59;25.10;96629.75;5073816;28;19917;-93
2023/10/19 11:58:37;;;;;;;;;;;;;;;28.64;26.79;96622.63;5073499;28;20431;-93
2023/10/19 12:01:13;;;;;;;;;;;;;;;28.95;26.31;96619.81;5078449;28;19935;-94
2023/10/19 12:03:40;;;;;;;;;;;;;;;28.89;26.52;96615.41;5073105;28;19916;-94
2023/10/19 12:06:06;;;;;;;;;;;;;;;29.35;25.96;96613.16;5074357;28;19916;-93
2023/10/19 12:08:36;;;;;;;;;;;;;;;29.15;26.38;96614.03;5074669;28;19917;-93
2023/10/19 12:11:15;;;;;;;;;;;;;;;29.01;26.26;96600.06;5072428;28;19920;-93
2023/10/19 12:13:43;;;;;;;;;;;;;;;27.86;26.92;96598.41;5073454;28;19917;-91
2023/10/19 12:16:12;;;;;;;;;;;;;;;28.69;26.24;96590.81;5073254;28;20020;-92
2023/10/19 12:18:46;;;;;;;;;;;;;;;28.82;26.89;96590.44;5093078;28;19967;-93
2023/10/19 12:21:12;;;;;;;;;;;;;;;28.00;27.17;96570.16;5088107;28;19931;-92
2023/10/19 12:23:43;;;;;;;;;;;;;;;28.93;26.32;96579.19;5073755;28;19943;-93
2023/10/19 12:26:12;;;;;;;;;;;;;;;29.59;25.76;96568.31;5087786;28;19965;-93
2023/10/19 12:28:38;;;;;;;;;;;;;;;29.35;25.42;96568.72;5093912;28;19916;-93
2023/10/19 12:31:11;;;;;;;;;;;;;;;29.58;25.69;96568.81;5074645;28;20437;-93
2023/10/19 12:33:38;;;;;;;;;;;;;;;29.52;24.96;96559.53;5073731;28;20345;-93
2023/10/19 12:38:50;;;;;;;;;;;;;;;28.74;27.54;96559.81;5075273;28;19927;-93
2023/10/19 12:41:17;;;;;;;;;;;;;;;28.61;27.87;96556.59;5081377;28;20017;-94
2023/10/19 12:43:43;;;;;;;;;;;;;;;26.11;31.57;96556.56;5090045;28;19924;-91
2023/10/19 12:46:11;;;;;;;;;;;;;;;24.22;34.48;96566.44;5086498;28;19925;-91
2023/10/19 12:48:37;;;;;;;;;;;;;;;23.40;36.01;96573.31;5073905;28;19917;-92
2023/10/19 12:51:06;;;;;;;;;;;;;;;23.15;36.15;96574.34;5093173;28;20109;-93
2023/10/19 12:53:33;;;;;;;;;;;;;;;22.38;37.77;96581.06;5079773;28;19921;-91
2023/10/19 12:55:59;;;;;;;;;;;;;;;23.03;36.24;96580.84;5083244;28;19921;-91
2023/10/19 12:58:27;;;;;;;;;;;;;;;22.29;37.42;96576.16;5085115;28;19916;-91
2023/10/19 13:00:55;;;;;;;;;;;;;;;22.60;36.68;96574.19;5076559;28;19917;-92
2023/10/19 13:03:23;;;;;;;;;;;;;;;22.63;36.69;96572.47;5082807;28;19977;-91
2023/10/19 13:05:49;;;;;;;;;;;;;;;22.13;37.50;96573.59;5085360;28;19963;-92
2023/10/19 13:08:15;;;;;;;;;;;;;;;21.86;38.02;96579.03;5091100;28;19916;-91
2023/10/19 13:10:43;;;;;;;;;;;;;;;21.98;37.59;96575.38;5101900;28;20007;-91
2023/10/19 13:13:12;;;;;;;;;;;;;;;23.49;34.91;96576.13;5086644;28;19916;-92